Time;durP1;ratioP1;P1;durP2;ratioP2;P2;SDS_P1;SDS_P2;PMS_P1;PMS_P2;Temp;Humidity;BMP_temperature;BMP_pressure;BME280_temperature;BME280_humidity;BME280_pressure;Samples;Min_cycle;Max_cycle;Signal;HPM_P1;HPM_P2
2022/07/21 00:02:21;;;;;;;;;;;;;;;-142.75;100.00;76399.03;5072802;28;19923;-70
2022/07/21 00:04:46;;;;;;;;;;;;;;;-142.75;100.00;76399.03;5072728;28;19921;-70
2022/07/21 00:07:11;;;;;;;;;;;;;;;-142.75;100.00;76410.84;5072775;28;19920;-70
2022/07/21 00:09:36;;;;;;;;;;;;;;;-142.75;100.00;76408.88;5071408;28;19923;-70
2022/07/21 00:12:05;;;;;;;;;;;;;;;-142.75;100.00;76410.84;5072512;28;20418;-71
2022/07/21 00:14:30;;;;;;;;;;;;;;;-142.75;100.00;76408.88;5072451;28;19913;-70
2022/07/21 00:16:55;;;;;;;;;;;;;;;-142.75;100.00;76401.00;5072457;28;19923;-71
2022/07/21 00:19:20;;;;;;;;;;;;;;;-142.75;100.00;76391.16;5070893;28;20274;-70
2022/07/21 00:21:46;;;;;;;;;;;;;;;-142.75;100.00;76408.88;5072458;28;19917;-70
2022/07/21 00:24:11;;;;;;;;;;;;;;;-142.75;100.00;76416.75;5072445;28;19920;-70
2022/07/21 00:26:36;;;;;;;;;;;;;;;-142.75;100.00;76420.69;5072324;28;19960;-70
2022/07/21 00:29:01;;;;;;;;;;;;;;;-142.75;100.00;76418.72;5070684;28;19957;-70
2022/07/21 00:31:26;;;;;;;;;;;;;;;-142.75;100.00;76408.88;5072318;28;19966;-70
2022/07/21 00:33:52;;;;;;;;;;;;;;;-142.75;100.00;76408.88;5072359;28;19913;-70
2022/07/21 00:36:17;;;;;;;;;;;;;;;-142.75;100.00;76404.94;5072185;28;19917;-70
2022/07/21 00:38:43;;;;;;;;;;;;;;;-142.75;100.00;76397.06;5071806;28;19959;-70
2022/07/21 00:41:08;;;;;;;;;;;;;;;-142.75;100.00;76402.97;5072223;28;20392;-70
2022/07/21 00:43:33;;;;;;;;;;;;;;;-142.75;100.00;76410.84;5072182;28;19920;-70
2022/07/21 00:45:58;;;;;;;;;;;;;;;-142.75;100.00;76397.06;5072259;28;19974;-71
2022/07/21 00:48:24;;;;;;;;;;;;;;;-142.75;100.00;76399.03;5071902;28;20397;-70
2022/07/21 00:50:49;;;;;;;;;;;;;;;-142.75;100.00;76401.00;5072108;28;19916;-70
2022/07/21 00:53:14;;;;;;;;;;;;;;;-142.75;100.00;76410.84;5072121;28;19958;-70
2022/07/21 00:55:42;;;;;;;;;;;;;;;-142.75;100.00;76412.81;5071949;28;19967;-71
2022/07/21 00:58:07;;;;;;;;;;;;;;;-142.75;100.00;76412.81;5071746;28;20006;-70
2022/07/21 01:00:32;;;;;;;;;;;;;;;-142.75;100.00;76408.88;5071940;28;20034;-70
2022/07/21 01:02:57;;;;;;;;;;;;;;;-142.75;100.00;76406.91;5072046;28;19966;-71
2022/07/21 01:05:23;;;;;;;;;;;;;;;-142.75;100.00;76397.06;5071981;28;19917;-70
2022/07/21 01:07:50;;;;;;;;;;;;;;;-142.75;100.00;76401.00;5071790;28;19995;-71
2022/07/21 01:10:17;;;;;;;;;;;;;;;-142.75;100.00;76395.09;5070308;28;20031;-70
2022/07/21 01:12:42;;;;;;;;;;;;;;;-142.75;100.00;76404.94;5071914;28;20442;-70
2022/07/21 01:15:09;;;;;;;;;;;;;;;-142.75;100.00;76408.88;5071815;28;19952;-70
2022/07/21 01:17:34;;;;;;;;;;;;;;;-142.75;100.00;76399.03;5071845;28;20285;-70
2022/07/21 01:20:06;;;;;;;;;;;;;;;-142.75;100.00;76383.28;5072496;28;19913;-69
2022/07/21 01:22:33;;;;;;;;;;;;;;;-142.75;100.00;76383.28;5075659;28;20006;-69
2022/07/21 01:24:58;;;;;;;;;;;;;;;-142.75;100.00;76375.41;5074459;28;19913;-71
2022/07/21 01:27:25;;;;;;;;;;;;;;;-142.75;100.00;76383.28;5075640;28;19913;-70
2022/07/21 01:29:50;;;;;;;;;;;;;;;-142.75;100.00;76381.31;5075230;28;20390;-70
2022/07/21 01:32:15;;;;;;;;;;;;;;;-142.75;100.00;76393.13;5075560;28;19921;-70
2022/07/21 01:34:41;;;;;;;;;;;;;;;-142.75;100.00;76391.16;5075437;28;19913;-70
2022/07/21 01:37:06;;;;;;;;;;;;;;;-142.75;100.00;76385.25;5075426;28;19919;-70
2022/07/21 01:42:15;;;;;;;;;;;;;;;-142.75;100.00;76385.25;5075377;28;19920;-70
2022/07/21 01:44:40;;;;;;;;;;;;;;;-142.75;100.00;76393.13;5075342;28;20302;-70
2022/07/21 01:47:05;;;;;;;;;;;;;;;-142.75;100.00;76397.06;5075377;28;19919;-70
2022/07/21 01:49:30;;;;;;;;;;;;;;;-142.75;100.00;76393.13;5073630;28;19917;-70
2022/07/21 01:51:56;;;;;;;;;;;;;;;-142.75;100.00;76387.22;5075179;28;19924;-70
2022/07/21 01:54:21;;;;;;;;;;;;;;;-142.75;100.00;76397.06;5075181;28;19954;-70
2022/07/21 01:56:46;;;;;;;;;;;;;;;-142.75;100.00;76393.13;5075055;28;20439;-70
2022/07/21 01:59:11;;;;;;;;;;;;;;;-142.75;100.00;76402.97;5073437;28;20378;-70
2022/07/21 02:01:37;;;;;;;;;;;;;;;-142.75;100.00;76401.00;5075020;28;19919;-70
2022/07/21 02:04:03;;;;;;;;;;;;;;;-142.75;100.00;76408.88;5075010;28;19913;-70
2022/07/21 02:06:29;;;;;;;;;;;;;;;-142.75;100.00;76416.75;5074830;28;20378;-70
2022/07/21 02:08:54;;;;;;;;;;;;;;;-142.75;100.00;76418.72;5074427;28;19943;-70
2022/07/21 02:11:20;;;;;;;;;;;;;;;-142.75;100.00;76414.78;5074898;28;19912;-70
2022/07/21 02:13:45;;;;;;;;;;;;;;;-142.75;100.00;76410.84;5074865;28;19920;-70
2022/07/21 02:16:11;;;;;;;;;;;;;;;-142.75;100.00;76410.84;5074754;28;19917;-70
2022/07/21 02:18:36;;;;;;;;;;;;;;;-142.75;100.00;76408.88;5074412;28;20385;-70
2022/07/21 02:21:01;;;;;;;;;;;;;;;-142.75;100.00;76406.91;5074539;28;20382;-70
2022/07/21 02:23:26;;;;;;;;;;;;;;;-142.75;100.00;76412.81;5074635;28;19966;-70
2022/07/21 02:25:52;;;;;;;;;;;;;;;-142.75;100.00;76410.84;5073259;28;20008;-70
2022/07/21 02:28:17;;;;;;;;;;;;;;;-142.75;100.00;76414.78;5074372;28;19913;-70
2022/07/21 02:30:43;;;;;;;;;;;;;;;-142.75;100.00;76418.72;5074346;28;20048;-70
2022/07/21 02:33:08;;;;;;;;;;;;;;;-142.75;100.00;76422.66;5073472;28;19919;-70
2022/07/21 02:35:34;;;;;;;;;;;;;;;-142.75;100.00;76420.69;5074281;28;19927;-70
2022/07/21 02:37:59;;;;;;;;;;;;;;;-142.75;100.00;76412.81;5074097;28;19913;-70
2022/07/21 02:40:25;;;;;;;;;;;;;;;-142.75;100.00;76418.72;5072951;28;20385;-70
2022/07/21 02:42:50;;;;;;;;;;;;;;;-142.75;100.00;76436.44;5074251;28;19920;-70
2022/07/21 02:45:15;;;;;;;;;;;;;;;-142.75;100.00;76440.38;5074227;28;19966;-70
2022/07/21 02:47:55;;;;;;;;;;;;;;;-142.75;100.00;76440.38;5074144;28;19913;-70
2022/07/21 02:50:21;;;;;;;;;;;;;;;-142.75;100.00;76440.38;5074039;28;19958;-70
2022/07/21 02:52:47;;;;;;;;;;;;;;;-142.75;100.00;76450.22;5072846;28;19921;-71
2022/07/21 02:55:12;;;;;;;;;;;;;;;-142.75;100.00;76448.25;5074034;28;20362;-70
2022/07/21 02:57:38;;;;;;;;;;;;;;;-142.75;100.00;76458.09;5073972;28;19913;-70
2022/07/21 03:00:04;;;;;;;;;;;;;;;-142.75;100.00;76454.16;5073617;28;20404;-70
2022/07/21 03:02:29;;;;;;;;;;;;;;;-142.75;100.00;76460.06;5073831;28;19913;-70
2022/07/21 03:04:54;;;;;;;;;;;;;;;-142.75;100.00;76460.06;5072611;28;19966;-70
2022/07/21 03:07:19;;;;;;;;;;;;;;;-142.75;100.00;76464.00;5073831;28;20322;-70
2022/07/21 03:09:45;;;;;;;;;;;;;;;-142.75;100.00;76467.94;5073278;28;19916;-70
2022/07/21 03:12:10;;;;;;;;;;;;;;;-142.75;100.00;76464.00;5073712;28;19919;-70
2022/07/21 03:14:35;;;;;;;;;;;;;;;-142.75;100.00;76464.00;5073616;28;19913;-70
2022/07/21 03:17:02;;;;;;;;;;;;;;;-142.75;100.00;76469.91;5073528;28;19916;-70
2022/07/21 03:19:27;;;;;;;;;;;;;;;-142.75;100.00;76471.88;5073120;28;19913;-70
2022/07/21 03:21:52;;;;;;;;;;;;;;;-142.75;100.00;76462.03;5073601;28;20489;-70
2022/07/21 03:24:17;;;;;;;;;;;;;;;-142.75;100.00;76454.16;5073459;28;19971;-70
2022/07/21 03:26:42;;;;;;;;;;;;;;;-142.75;100.00;76454.16;5072372;28;19955;-70
2022/07/21 03:29:09;;;;;;;;;;;;;;;-142.75;100.00;76456.13;5073058;28;19919;-69
2022/07/21 03:31:34;;;;;;;;;;;;;;;-142.75;100.00;76460.06;5073569;28;20393;-70
2022/07/21 03:33:59;;;;;;;;;;;;;;;-142.75;100.00;76462.03;5073465;28;19913;-70
2022/07/21 03:36:24;;;;;;;;;;;;;;;-142.75;100.00;76473.84;5073308;28;19931;-71
2022/07/21 03:38:51;;;;;;;;;;;;;;;-142.75;100.00;76464.00;5072842;28;19919;-69
2022/07/21 03:41:16;;;;;;;;;;;;;;;-142.75;100.00;76471.88;5073168;28;19912;-70
2022/07/21 03:43:41;;;;;;;;;;;;;;;-142.75;100.00;76483.69;5072911;28;19986;-70
2022/07/21 03:46:06;;;;;;;;;;;;;;;-142.75;100.00;76483.69;5073372;28;19920;-70
2022/07/21 03:48:32;;;;;;;;;;;;;;;-142.75;100.00;76483.69;5072611;28;19919;-70
2022/07/21 03:50:57;;;;;;;;;;;;;;;-142.75;100.00;76487.63;5072885;28;20005;-70
2022/07/21 03:53:22;;;;;;;;;;;;;;;-142.75;100.00;76483.69;5072944;28;19916;-70
2022/07/21 03:55:47;;;;;;;;;;;;;;;-142.75;100.00;76489.59;5072820;28;19917;-70
2022/07/21 03:58:13;;;;;;;;;;;;;;;-142.75;100.00;76479.75;5072577;28;20365;-70
2022/07/21 04:00:40;;;;;;;;;;;;;;;-142.75;100.00;76479.75;5072781;28;20385;-70
2022/07/21 04:03:06;;;;;;;;;;;;;;;-142.75;100.00;76479.75;5072760;28;19938;-70
2022/07/21 04:05:31;;;;;;;;;;;;;;;-142.75;100.00;76489.59;5072746;28;20396;-70
2022/07/21 04:07:57;;;;;;;;;;;;;;;-142.75;100.00;76493.53;5071104;28;19912;-70
2022/07/21 04:10:24;;;;;;;;;;;;;;;-142.75;100.00;76489.59;5082290;22;19931;-70
2022/07/21 04:12:50;;;;;;;;;;;;;;;-142.75;100.00;76497.47;5050472;28;19916;-69
2022/07/21 04:15:16;;;;;;;;;;;;;;;-142.75;100.00;76507.31;5050829;28;19974;-69
2022/07/21 04:17:41;;;;;;;;;;;;;;;-142.75;100.00;76509.28;5052390;28;20402;-69
2022/07/21 04:20:07;;;;;;;;;;;;;;;-142.75;100.00;76503.38;5052058;28;20422;-69
2022/07/21 04:22:32;;;;;;;;;;;;;;;-142.75;100.00;76503.38;5052402;28;20336;-69
2022/07/21 04:24:59;;;;;;;;;;;;;;;-142.75;100.00;76503.38;5051156;28;20011;-70
2022/07/21 04:27:24;;;;;;;;;;;;;;;-142.75;100.00;76503.38;5052382;28;19912;-69
2022/07/21 04:29:50;;;;;;;;;;;;;;;-142.75;100.00;76505.34;5051999;28;20367;-69
2022/07/21 04:32:15;;;;;;;;;;;;;;;-142.75;100.00;76499.44;5052228;28;19916;-70
2022/07/21 04:34:41;;;;;;;;;;;;;;;-142.75;100.00;76503.38;5052263;28;19919;-70
2022/07/21 04:37:06;;;;;;;;;;;;;;;-142.75;100.00;76511.25;5052126;28;20430;-69
2022/07/21 04:39:31;;;;;;;;;;;;;;;-142.75;100.00;76511.25;5050589;28;19913;-69
2022/07/21 04:41:56;;;;;;;;;;;;;;;-142.75;100.00;76513.22;5050900;28;19962;-69
2022/07/21 04:44:21;;;;;;;;;;;;;;;-142.75;100.00;76515.19;5052207;28;20309;-69
2022/07/21 04:46:47;;;;;;;;;;;;;;;-142.75;100.00;76515.19;5050776;28;19919;-69
2022/07/21 04:49:12;;;;;;;;;;;;;;;-142.75;100.00;76511.25;5051694;28;19966;-69
2022/07/21 04:51:37;;;;;;;;;;;;;;;-142.75;100.00;76519.13;5052024;28;19920;-70
2022/07/21 04:54:02;;;;;;;;;;;;;;;-142.75;100.00;76513.22;5052039;28;19913;-69
2022/07/21 04:56:28;;;;;;;;;;;;;;;-142.75;100.00;76519.13;5054222;28;19916;-70
2022/07/21 04:58:53;;;;;;;;;;;;;;;-142.75;100.00;76523.06;5055918;28;19944;-70
2022/07/21 05:01:18;;;;;;;;;;;;;;;-142.75;100.00;76519.13;5054666;28;19975;-69
2022/07/21 05:03:44;;;;;;;;;;;;;;;-142.75;100.00;76521.09;5056206;28;19913;-70
2022/07/21 05:06:09;;;;;;;;;;;;;;;-142.75;100.00;76527.00;5056046;28;19919;-69
2022/07/21 05:08:34;;;;;;;;;;;;;;;-142.75;100.00;76528.97;5055742;28;20442;-69
2022/07/21 05:10:59;;;;;;;;;;;;;;;-142.75;100.00;76530.91;5055828;28;19994;-70
2022/07/21 05:13:25;;;;;;;;;;;;;;;-142.75;100.00;76530.91;5055949;28;20062;-70
2022/07/21 05:15:50;;;;;;;;;;;;;;;-142.75;100.00;76530.91;5055724;28;19917;-69
2022/07/21 05:18:15;;;;;;;;;;;;;;;-142.75;100.00;76528.97;5055529;28;19916;-69
2022/07/21 05:20:41;;;;;;;;;;;;;;;-142.75;100.00;76515.19;5055660;28;19912;-68
2022/07/21 05:23:08;;;;;;;;;;;;;;;-142.75;100.00;76515.19;5055749;28;19912;-70
2022/07/21 05:25:35;;;;;;;;;;;;;;;-142.75;100.00;76517.16;5055750;28;19983;-69
2022/07/21 05:28:00;;;;;;;;;;;;;;;-142.75;100.00;76519.13;5055381;28;19920;-68
2022/07/21 05:30:25;;;;;;;;;;;;;;;-142.75;100.00;76515.19;5055508;28;19913;-69
2022/07/21 05:32:51;;;;;;;;;;;;;;;-142.75;100.00;76511.25;5054331;28;19916;-69
2022/07/21 05:35:16;;;;;;;;;;;;;;;-142.75;100.00;76511.25;5055455;28;19940;-69
2022/07/21 05:37:41;;;;;;;;;;;;;;;-142.75;100.00;76519.13;5054060;28;19913;-69
2022/07/21 05:40:08;;;;;;;;;;;;;;;-142.75;100.00;76511.25;5055281;28;19913;-69
2022/07/21 05:42:33;;;;;;;;;;;;;;;-142.75;100.00;76505.34;5055417;28;19919;-70
2022/07/21 05:44:58;;;;;;;;;;;;;;;-142.75;100.00;76501.41;5055307;28;19912;-70
2022/07/21 05:47:24;;;;;;;;;;;;;;;-142.75;100.00;76503.38;5055390;28;20003;-69
2022/07/21 05:49:49;;;;;;;;;;;;;;;-142.75;100.00;76499.44;5054854;28;19913;-69
2022/07/21 05:52:14;;;;;;;;;;;;;;;-142.75;100.00;76487.63;5055237;28;19913;-69
2022/07/21 05:54:39;;;;;;;;;;;;;;;-142.75;100.00;76483.69;5055179;28;19913;-69
2022/07/21 05:57:04;;;;;;;;;;;;;;;-142.75;100.00;76479.75;5055051;28;20028;-70
2022/07/21 05:59:30;;;;;;;;;;;;;;;-142.75;100.00;76479.75;5054749;28;19913;-69
2022/07/21 06:01:55;;;;;;;;;;;;;;;-142.75;100.00;76477.78;5054969;28;19917;-69
2022/07/21 06:04:20;;;;;;;;;;;;;;;-142.75;100.00;76473.84;5054941;28;19919;-69
2022/07/21 06:06:45;;;;;;;;;;;;;;;-142.75;100.00;76471.88;5054898;28;19972;-69
2022/07/21 06:09:10;;;;;;;;;;;;;;;-142.75;100.00;76471.88;5054411;28;19982;-68
2022/07/21 06:11:36;;;;;;;;;;;;;;;-142.75;100.00;76475.81;5054868;28;20325;-69
2022/07/21 06:14:01;;;;;;;;;;;;;;;-142.75;100.00;76475.81;5055155;28;19974;-70
2022/07/21 06:16:26;;;;;;;;;;;;;;;-142.75;100.00;76483.69;5054596;28;19917;-68
2022/07/21 06:18:51;;;;;;;;;;;;;;;-142.75;100.00;76483.69;5054362;28;19913;-70
2022/07/21 06:21:17;;;;;;;;;;;;;;;-142.75;100.00;76479.75;5053198;28;20340;-69
2022/07/21 06:23:43;;;;;;;;;;;;;;;-142.75;100.00;76477.78;5053145;28;19912;-71
2022/07/21 06:26:08;;;;;;;;;;;;;;;-142.75;100.00;76471.88;5054610;28;19975;-70
2022/07/21 06:28:33;;;;;;;;;;;;;;;-142.75;100.00;76467.94;5054272;28;19912;-70
2022/07/21 06:30:58;;;;;;;;;;;;;;;-142.75;100.00;76462.03;5054361;28;19916;-69
2022/07/21 06:33:23;;;;;;;;;;;;;;;-142.75;100.00;76465.97;5053040;28;19913;-71
2022/07/21 06:35:49;;;;;;;;;;;;;;;-142.75;100.00;76462.03;5052028;28;19923;-71
2022/07/21 06:38:14;;;;;;;;;;;;;;;-142.75;100.00;76454.16;5053245;28;20030;-70
2022/07/21 06:40:40;;;;;;;;;;;;;;;-142.75;100.00;76458.09;5053225;28;20318;-70
2022/07/21 06:43:05;;;;;;;;;;;;;;;-142.75;100.00;76462.03;5053300;28;19917;-70
2022/07/21 06:45:30;;;;;;;;;;;;;;;-142.75;100.00;76469.91;5053285;28;19960;-71
2022/07/21 06:48:03;;;;;;;;;;;;;;;-142.75;100.00;76477.78;5051668;28;19913;-69
2022/07/21 06:50:28;;;;;;;;;;;;;;;-142.75;100.00;76487.63;5053103;28;20382;-70
2022/07/21 06:52:53;;;;;;;;;;;;;;;-142.75;100.00;76495.50;5053198;28;19966;-71
2022/07/21 06:55:18;;;;;;;;;;;;;;;-142.75;100.00;76503.38;5053046;28;20329;-71
2022/07/21 06:57:44;;;;;;;;;;;;;;;-142.75;100.00;76503.38;5052914;28;19913;-69
2022/07/21 07:00:09;;;;;;;;;;;;;;;-142.75;100.00;76493.53;5052792;28;19919;-70
2022/07/21 07:02:34;;;;;;;;;;;;;;;-142.75;100.00;76503.38;5051490;28;19913;-70
2022/07/21 07:04:59;;;;;;;;;;;;;;;-142.75;100.00;76507.31;5052982;28;20438;-71
2022/07/21 07:07:25;;;;;;;;;;;;;;;-142.75;100.00;76505.34;5052903;28;20330;-70
2022/07/21 07:09:50;;;;;;;;;;;;;;;-142.75;100.00;76503.38;5051268;28;19917;-71
2022/07/21 07:12:15;;;;;;;;;;;;;;;-142.75;100.00;76511.25;5053750;28;19920;-71
2022/07/21 07:14:40;;;;;;;;;;;;;;;-142.75;100.00;76515.19;5053556;28;19913;-70
2022/07/21 07:17:06;;;;;;;;;;;;;;;-142.75;100.00;76530.91;5052895;28;19929;-71
2022/07/21 07:19:31;;;;;;;;;;;;;;;-142.75;100.00;76534.84;5052279;28;19944;-71
2022/07/21 07:21:56;;;;;;;;;;;;;;;-142.75;100.00;76530.91;5051850;28;20308;-69
2022/07/21 07:24:22;;;;;;;;;;;;;;;-142.75;100.00;76538.78;5053496;28;19920;-70
2022/07/21 07:26:47;;;;;;;;;;;;;;;-142.75;100.00;76534.84;5053501;28;19959;-70
2022/07/21 07:29:12;;;;;;;;;;;;;;;-142.75;100.00;76540.75;5052965;28;19912;-71
2022/07/21 07:31:38;;;;;;;;;;;;;;;-142.75;100.00;76536.84;5053283;28;19960;-70
2022/07/21 07:34:03;;;;;;;;;;;;;;;-142.75;100.00;76538.78;5051912;28;19913;-70
2022/07/21 07:36:29;;;;;;;;;;;;;;;-142.75;100.00;76530.91;5053161;28;19971;-70
2022/07/21 07:38:55;;;;;;;;;;;;;;;-142.75;100.00;76542.72;5051288;28;20335;-71
2022/07/21 07:41:21;;;;;;;;;;;;;;;-142.75;100.00;76546.66;5051735;28;19912;-70
2022/07/21 07:43:46;;;;;;;;;;;;;;;-142.75;100.00;76540.75;5052976;28;19920;-70
2022/07/21 07:46:12;;;;;;;;;;;;;;;-142.75;100.00;76546.66;5053101;28;20544;-70
2022/07/21 07:48:37;;;;;;;;;;;;;;;-142.75;100.00;76544.69;5051363;28;19995;-70
2022/07/21 07:51:03;;;;;;;;;;;;;;;-142.75;100.00;76552.56;5051594;28;19920;-70
2022/07/21 07:53:29;;;;;;;;;;;;;;;-142.75;100.00;76554.53;5052886;28;19913;-71
2022/07/21 07:55:54;;;;;;;;;;;;;;;-142.75;100.00;76564.38;5051506;28;19963;-71
2022/07/21 07:58:19;;;;;;;;;;;;;;;-142.75;100.00;76564.38;5052398;28;19919;-71
2022/07/21 08:00:44;;;;;;;;;;;;;;;-142.75;100.00;76560.44;5052666;28;19924;-71
2022/07/21 08:03:10;;;;;;;;;;;;;;;-142.75;100.00;76562.41;5048555;28;19917;-71
2022/07/21 08:05:35;;;;;;;;;;;;;;;-142.75;100.00;76564.38;5052564;28;19923;-70
2022/07/21 08:08:00;;;;;;;;;;;;;;;-142.75;100.00;76556.50;5051002;28;20184;-70
2022/07/21 08:10:25;;;;;;;;;;;;;;;-142.75;100.00;76562.41;5052454;28;19920;-69
2022/07/21 08:12:50;;;;;;;;;;;;;;;-142.75;100.00;76560.44;5052556;28;19913;-69
2022/07/21 08:15:16;;;;;;;;;;;;;;;-142.75;100.00;76560.44;5051124;28;20020;-70
2022/07/21 08:17:41;;;;;;;;;;;;;;;-142.75;100.00;76548.63;5052445;28;20275;-71
2022/07/21 08:20:07;;;;;;;;;;;;;;;-142.75;100.00;76550.59;5052293;28;19920;-70
2022/07/21 08:22:32;;;;;;;;;;;;;;;-142.75;100.00;76544.69;5052165;28;19963;-71
2022/07/21 08:24:57;;;;;;;;;;;;;;;-142.75;100.00;76538.78;5051600;28;20099;-71
2022/07/21 08:27:22;;;;;;;;;;;;;;;-142.75;100.00;76540.75;5052305;28;19992;-71
2022/07/21 08:29:49;;;;;;;;;;;;;;;-142.75;100.00;76540.75;5051028;28;19917;-71
2022/07/21 08:32:15;;;;;;;;;;;;;;;-142.75;100.00;76534.84;5052303;28;19913;-71
2022/07/21 08:34:40;;;;;;;;;;;;;;;-142.75;100.00;76534.84;5052303;28;19919;-71
2022/07/21 08:37:05;;;;;;;;;;;;;;;-142.75;100.00;76532.88;5052174;28;19921;-71
2022/07/21 08:39:30;;;;;;;;;;;;;;;-142.75;100.00;76528.97;5051612;28;20007;-71
2022/07/21 08:41:56;;;;;;;;;;;;;;;-142.75;100.00;76534.84;5050559;28;19913;-71
2022/07/21 08:44:21;;;;;;;;;;;;;;;-142.75;100.00;76532.88;5050542;28;19913;-71
2022/07/21 08:46:49;;;;;;;;;;;;;;;-142.75;100.00;76540.75;5050869;28;19963;-70
2022/07/21 08:49:14;;;;;;;;;;;;;;;-142.75;100.00;76554.53;5049928;28;19959;-70
2022/07/21 08:51:39;;;;;;;;;;;;;;;-142.75;100.00;76562.41;5051702;28;19956;-71
2022/07/21 08:54:05;;;;;;;;;;;;;;;-142.75;100.00;76566.34;5052071;28;19916;-71
2022/07/21 08:56:30;;;;;;;;;;;;;;;-142.75;100.00;76574.22;5050716;28;20016;-71
2022/07/21 08:58:55;;;;;;;;;;;;;;;-142.75;100.00;76580.13;5051716;28;19917;-71
2022/07/21 09:01:23;;;;;;;;;;;;;;;-142.75;100.00;76597.84;5051929;28;19920;-71
2022/07/21 09:03:49;;;;;;;;;;;;;;;-142.75;100.00;76603.75;5050757;28;19995;-71
2022/07/21 09:06:15;;;;;;;;;;;;;;;-142.75;100.00;76613.59;5050754;28;20006;-71
2022/07/21 09:08:44;;;;;;;;;;;;;;;-142.75;100.00;76613.59;5051715;28;19912;-71
2022/07/21 09:11:10;;;;;;;;;;;;;;;-142.75;100.00;76613.59;5051694;28;19916;-70
2022/07/21 09:13:35;;;;;;;;;;;;;;;-142.75;100.00;76615.56;5051893;28;20394;-71
2022/07/21 09:16:00;;;;;;;;;;;;;;;-142.75;100.00;76633.28;5051802;28;19924;-71
2022/07/21 09:18:26;;;;;;;;;;;;;;;-142.75;100.00;76629.34;5050357;28;20386;-70
2022/07/21 09:20:53;;;;;;;;;;;;;;;-142.75;100.00;76637.22;5051827;28;19960;-70
2022/07/21 09:23:19;;;;;;;;;;;;;;;-142.75;100.00;76627.38;5051907;28;19913;-71
2022/07/21 09:25:49;;;;;;;;;;;;;;;-142.75;100.00;76633.28;5051728;28;20015;-69
2022/07/21 09:28:20;;;;;;;;;;;;;;;-142.75;100.00;76617.53;5051509;28;20394;-69
2022/07/21 09:30:53;;;;;;;;;;;;;;;-142.75;100.00;76607.69;5051702;28;19917;-71
2022/07/21 09:33:23;;;;;;;;;;;;;;;-142.75;100.00;76605.72;5050473;28;19952;-71
2022/07/21 09:35:56;;;;;;;;;;;;;;;-142.75;100.00;76593.91;5051662;28;19924;-71
2022/07/21 09:38:22;;;;;;;;;;;;;;;-142.75;100.00;76582.09;5051329;28;19920;-70
2022/07/21 09:40:47;;;;;;;;;;;;;;;-142.75;100.00;76580.13;5052188;28;19916;-71
2022/07/21 09:43:27;;;;;;;;;;;;;;;-142.75;100.00;76580.13;5055488;28;19934;-71
2022/07/21 09:45:53;;;;;;;;;;;;;;;-142.75;100.00;76574.22;5055382;28;19913;-70
2022/07/21 09:48:28;;;;;;;;;;;;;;;-142.75;100.00;76584.06;5055061;28;20444;-71
2022/07/21 09:50:54;;;;;;;;;;;;;;;-142.75;100.00;76593.91;5055146;28;19916;-70
2022/07/21 09:53:19;;;;;;;;;;;;;;;-142.75;100.00;76609.66;5055218;28;19919;-70
2022/07/21 09:55:44;;;;;;;;;;;;;;;-142.75;100.00;76621.47;5055099;28;19921;-71
2022/07/21 09:58:09;;;;;;;;;;;;;;;-142.75;100.00;76633.28;5054836;28;19913;-71
2022/07/21 10:00:35;;;;;;;;;;;;;;;-142.75;100.00;76629.34;5055034;28;19917;-71
2022/07/21 10:03:01;;;;;;;;;;;;;;;-142.75;100.00;76631.31;5055036;28;19950;-71
2022/07/21 10:05:26;;;;;;;;;;;;;;;-142.75;100.00;76633.28;5054878;28;19973;-71
2022/07/21 10:07:52;;;;;;;;;;;;;;;-142.75;100.00;76637.22;5054769;28;19917;-69
2022/07/21 10:10:17;;;;;;;;;;;;;;;-142.75;100.00;76641.16;5082877;23;19947;-67
2022/07/21 10:12:42;;;;;;;;;;;;;;;-142.75;100.00;76649.03;5073810;28;19916;-67
2022/07/21 10:15:08;;;;;;;;;;;;;;;-142.75;100.00;76649.03;5074356;28;20374;-67
2022/07/21 10:17:33;;;;;;;;;;;;;;;-142.75;100.00;76647.06;5074726;28;19927;-68
2022/07/21 10:20:16;;;;;;;;;;;;;;;-142.75;100.00;76652.97;5074297;28;19916;-67
2022/07/21 10:22:59;;;;;;;;;;;;;;;-142.75;100.00;76654.94;5074693;28;20435;-67
2022/07/21 10:25:25;;;;;;;;;;;;;;;-142.75;100.00;76649.03;5074723;28;19912;-67
2022/07/21 10:28:09;;;;;;;;;;;;;;;-142.75;100.00;76660.84;5074428;28;19920;-67
2022/07/21 10:30:38;;;;;;;;;;;;;;;-142.75;100.00;76654.94;5074462;28;19917;-67
2022/07/21 10:33:03;;;;;;;;;;;;;;;-142.75;100.00;76652.97;5074520;28;19912;-67
2022/07/21 10:35:30;;;;;;;;;;;;;;;-142.75;100.00;76656.91;5074401;28;19923;-67
2022/07/21 10:37:55;;;;;;;;;;;;;;;-142.75;100.00;76668.72;5074117;28;19935;-67
2022/07/21 10:40:20;;;;;;;;;;;;;;;-142.75;100.00;76664.78;5074273;28;19912;-67
2022/07/21 10:43:00;;;;;;;;;;;;;;;-142.75;100.00;76664.78;5074082;28;19916;-68
2022/07/21 10:45:36;;;;;;;;;;;;;;;-142.75;100.00;76658.88;5074192;28;19916;-68
2022/07/21 10:48:03;;;;;;;;;;;;;;;-142.75;100.00;76651.00;5073992;28;20012;-68
2022/07/21 10:50:29;;;;;;;;;;;;;;;-142.75;100.00;76645.09;5074104;28;20427;-68
2022/07/21 10:53:00;;;;;;;;;;;;;;;-142.75;100.00;76633.28;5073528;28;19916;-67
2022/07/21 10:55:27;;;;;;;;;;;;;;;-142.75;100.00;76649.03;5074176;28;19920;-67
2022/07/21 10:58:13;;;;;;;;;;;;;;;-142.75;100.00;76649.03;5073779;28;19924;-66
2022/07/21 11:00:38;;;;;;;;;;;;;;;-142.75;100.00;76651.00;5073967;28;20450;-67
2022/07/21 11:03:12;;;;;;;;;;;;;;;-142.75;100.00;76658.88;5073921;28;19912;-68
2022/07/21 11:05:58;;;;;;;;;;;;;;;-142.75;100.00;76647.06;5073874;28;20289;-67
2022/07/21 11:08:29;;;;;;;;;;;;;;;-142.75;100.00;76652.97;5073472;28;19912;-67
2022/07/21 11:11:06;;;;;;;;;;;;;;;-142.75;100.00;76651.00;5073678;28;19916;-67
2022/07/21 11:13:51;;;;;;;;;;;;;;;-142.75;100.00;76643.13;5073770;28;20385;-67
2022/07/21 11:16:16;;;;;;;;;;;;;;;-142.75;100.00;76647.06;5073491;28;20484;-68
2022/07/21 11:18:42;;;;;;;;;;;;;;;-142.75;100.00;76633.28;5073350;28;19999;-67
2022/07/21 11:21:11;;;;;;;;;;;;;;;-142.75;100.00;76633.28;5073360;28;19916;-68
2022/07/21 11:23:44;;;;;;;;;;;;;;;-142.75;100.00;76627.38;5073198;28;19916;-68
2022/07/21 11:26:10;;;;;;;;;;;;;;;-142.75;100.00;76633.28;5073397;28;19913;-68
2022/07/21 11:28:36;;;;;;;;;;;;;;;-142.75;100.00;76647.06;5073063;28;19966;-68
2022/07/21 11:31:15;;;;;;;;;;;;;;;-142.75;100.00;76652.97;5073303;28;19912;-68
2022/07/21 11:33:42;;;;;;;;;;;;;;;-142.75;100.00;76652.97;5072376;28;19916;-68
2022/07/21 11:36:07;;;;;;;;;;;;;;;-142.75;100.00;76662.81;5073397;28;19920;-68
2022/07/21 11:38:34;;;;;;;;;;;;;;;-142.75;100.00;76672.66;5072943;28;19916;-67
2022/07/21 11:41:15;;;;;;;;;;;;;;;-142.75;100.00;76672.66;5073201;28;20297;-68
2022/07/21 11:43:44;;;;;;;;;;;;;;;-142.75;100.00;76666.75;5073041;28;19958;-68
2022/07/21 11:46:09;;;;;;;;;;;;;;;-142.75;100.00;76666.75;5073051;28;20370;-68
2022/07/21 11:48:34;;;;;;;;;;;;;;;-142.75;100.00;76670.69;5072737;28;20007;-68
2022/07/21 11:51:00;;;;;;;;;;;;;;;-142.75;100.00;76666.75;5072717;28;19912;-68
2022/07/21 11:53:25;;;;;;;;;;;;;;;-142.75;100.00;76672.66;5072974;28;19912;-67
2022/07/21 11:55:51;;;;;;;;;;;;;;;-142.75;100.00;76678.56;5073210;28;19917;-68
2022/07/21 11:58:16;;;;;;;;;;;;;;;-142.75;100.00;76688.41;5071082;28;19916;-66
2022/07/21 12:00:41;;;;;;;;;;;;;;;-142.75;100.00;76698.25;5071910;28;20397;-67
2022/07/21 12:03:07;;;;;;;;;;;;;;;-142.75;100.00;76702.19;5072143;28;19916;-68
2022/07/21 12:05:32;;;;;;;;;;;;;;;-142.75;100.00;76704.16;5071653;28;19919;-66
2022/07/21 12:07:57;;;;;;;;;;;;;;;-142.75;100.00;76708.09;5071540;28;19912;-67
2022/07/21 12:10:27;;;;;;;;;;;;;;;-142.75;100.00;76717.94;5071080;28;19942;-66
2022/07/21 12:12:58;;;;;;;;;;;;;;;-142.75;100.00;76727.78;5071702;28;20439;-67
2022/07/21 12:15:28;;;;;;;;;;;;;;;-142.75;100.00;76723.84;5071546;28;19913;-67
2022/07/21 12:18:16;;;;;;;;;;;;;;;-142.75;100.00;76708.09;5071392;28;19977;-66